sensor_id;sensor_type;location;lat;lon;timestamp;pressure;altitude;pressure_sealevel;temperature;humidity
80749;BME280;70145;53.746;9.970;2023-07-13T00:01:27;100956.00;;;15.53;55.07
80749;BME280;70145;53.746;9.970;2023-07-13T00:03:54;100961.44;;;15.53;54.93
80749;BME280;70145;53.746;9.970;2023-07-13T00:06:21;100948.19;;;15.50;54.88
80749;BME280;70145;53.746;9.970;2023-07-13T00:08:46;100949.19;;;15.49;54.82
80749;BME280;70145;53.746;9.970;2023-07-13T00:11:13;100951.19;;;15.47;54.95
80749;BME280;70145;53.746;9.970;2023-07-13T00:13:39;100950.53;;;15.45;54.91
80749;BME280;70145;53.746;9.970;2023-07-13T00:16:06;100950.53;;;15.45;54.93
80749;BME280;70145;53.746;9.970;2023-07-13T00:18:31;100956.25;;;15.42;54.76
80749;BME280;70145;53.746;9.970;2023-07-13T00:20:57;100955.56;;;15.40;54.63
80749;BME280;70145;53.746;9.970;2023-07-13T00:23:33;100947.72;;;15.37;54.74
80749;BME280;70145;53.746;9.970;2023-07-13T00:26:02;100946.03;;;15.36;54.36
80749;BME280;70145;53.746;9.970;2023-07-13T00:28:28;100945.31;;;15.34;54.81
80749;BME280;70145;53.746;9.970;2023-07-13T00:30:54;100939.22;;;15.32;54.75
80749;BME280;70145;53.746;9.970;2023-07-13T00:33:19;100943.94;;;15.30;54.65
80749;BME280;70145;53.746;9.970;2023-07-13T00:35:45;100945.09;;;15.28;54.48
80749;BME280;70145;53.746;9.970;2023-07-13T00:38:10;100947.25;;;15.24;54.65
80749;BME280;70145;53.746;9.970;2023-07-13T00:40:35;100940.28;;;15.22;54.44
80749;BME280;70145;53.746;9.970;2023-07-13T00:43:01;100946.88;;;15.19;54.47
80749;BME280;70145;53.746;9.970;2023-07-13T00:47:51;100960.34;;;15.11;54.30
80749;BME280;70145;53.746;9.970;2023-07-13T00:50:18;100950.81;;;15.07;54.16
80749;BME280;70145;53.746;9.970;2023-07-13T00:52:47;100961.97;;;15.04;54.19
80749;BME280;70145;53.746;9.970;2023-07-13T00:55:15;100953.28;;;15.01;53.92
80749;BME280;70145;53.746;9.970;2023-07-13T00:57:42;100954.59;;;14.97;54.07
80749;BME280;70145;53.746;9.970;2023-07-13T01:00:09;100955.78;;;14.94;53.74
80749;BME280;70145;53.746;9.970;2023-07-13T01:02:37;100959.75;;;14.90;54.02
80749;BME280;70145;53.746;9.970;2023-07-13T01:05:17;100961.19;;;14.85;54.13
80749;BME280;70145;53.746;9.970;2023-07-13T01:07:44;100951.53;;;14.82;53.95
80749;BME280;70145;53.746;9.970;2023-07-13T01:10:28;100957.53;;;14.76;53.91
80749;BME280;70145;53.746;9.970;2023-07-13T01:12:54;100958.84;;;14.72;53.97
80749;BME280;70145;53.746;9.970;2023-07-13T01:15:52;100959.47;;;14.66;53.80
80749;BME280;70145;53.746;9.970;2023-07-13T01:18:26;100952.50;;;14.64;54.00
80749;BME280;70145;53.746;9.970;2023-07-13T01:20:57;100956.50;;;14.60;53.75
80749;BME280;70145;53.746;9.970;2023-07-13T01:23:23;100955.94;;;14.56;53.81
80749;BME280;70145;53.746;9.970;2023-07-13T01:25:50;100950.00;;;14.53;53.84
80749;BME280;70145;53.746;9.970;2023-07-13T01:28:15;100948.56;;;14.49;53.95
80749;BME280;70145;53.746;9.970;2023-07-13T01:30:43;100945.31;;;14.45;53.81
80749;BME280;70145;53.746;9.970;2023-07-13T01:33:12;100946.59;;;14.41;54.01
80749;BME280;70145;53.746;9.970;2023-07-13T01:35:37;100946.91;;;14.38;53.80
80749;BME280;70145;53.746;9.970;2023-07-13T01:38:04;100940.06;;;14.34;53.95
80749;BME280;70145;53.746;9.970;2023-07-13T01:40:29;100942.25;;;14.31;53.99
80749;BME280;70145;53.746;9.970;2023-07-13T01:42:55;100951.50;;;14.28;53.92
80749;BME280;70145;53.746;9.970;2023-07-13T01:45:21;100948.25;;;14.25;53.89
80749;BME280;70145;53.746;9.970;2023-07-13T01:47:46;100951.41;;;14.20;54.00
80749;BME280;70145;53.746;9.970;2023-07-13T01:50:12;100948.97;;;14.17;53.99
80749;BME280;70145;53.746;9.970;2023-07-13T01:52:37;100951.97;;;14.14;54.11
80749;BME280;70145;53.746;9.970;2023-07-13T01:55:03;100944.13;;;14.11;54.35
80749;BME280;70145;53.746;9.970;2023-07-13T01:57:28;100941.69;;;14.08;54.78
80749;BME280;70145;53.746;9.970;2023-07-13T01:59:53;100946.44;;;14.06;55.00
80749;BME280;70145;53.746;9.970;2023-07-13T02:02:19;100937.59;;;14.04;55.35
80749;BME280;70145;53.746;9.970;2023-07-13T02:04:45;100941.31;;;14.03;55.57
80749;BME280;70145;53.746;9.970;2023-07-13T02:07:11;100943.16;;;14.02;55.64
80749;BME280;70145;53.746;9.970;2023-07-13T02:09:36;100947.84;;;14.00;55.81
80749;BME280;70145;53.746;9.970;2023-07-13T02:12:02;100952.44;;;14.00;56.03
80749;BME280;70145;53.746;9.970;2023-07-13T02:14:27;100948.84;;;13.99;56.29
80749;BME280;70145;53.746;9.970;2023-07-13T02:16:53;100947.00;;;14.00;56.21
80749;BME280;70145;53.746;9.970;2023-07-13T02:19:18;100947.16;;;13.98;56.37
80749;BME280;70145;53.746;9.970;2023-07-13T02:21:43;100950.69;;;13.99;56.35
80749;BME280;70145;53.746;9.970;2023-07-13T02:24:09;100948.00;;;13.99;56.32
80749;BME280;70145;53.746;9.970;2023-07-13T02:26:34;100947.00;;;14.00;56.25
80749;BME280;70145;53.746;9.970;2023-07-13T02:29:00;100947.84;;;14.00;56.43
80749;BME280;70145;53.746;9.970;2023-07-13T02:31:25;100943.28;;;14.01;56.61
80749;BME280;70145;53.746;9.970;2023-07-13T02:33:50;100948.72;;;14.01;56.56
80749;BME280;70145;53.746;9.970;2023-07-13T02:36:16;100955.00;;;14.01;56.50
80749;BME280;70145;53.746;9.970;2023-07-13T02:38:42;100945.00;;;14.02;56.66
80749;BME280;70145;53.746;9.970;2023-07-13T02:41:07;100949.56;;;14.01;56.63
80749;BME280;70145;53.746;9.970;2023-07-13T02:43:34;100945.84;;;14.02;56.77
80749;BME280;70145;53.746;9.970;2023-07-13T02:46:00;100946.88;;;14.01;56.79
80749;BME280;70145;53.746;9.970;2023-07-13T02:48:32;100950.56;;;14.00;56.81
80749;BME280;70145;53.746;9.970;2023-07-13T02:50:57;100947.00;;;14.00;56.86
80749;BME280;70145;53.746;9.970;2023-07-13T02:53:23;100948.00;;;13.99;56.76
80749;BME280;70145;53.746;9.970;2023-07-13T02:55:48;100952.72;;;13.97;56.89
80749;BME280;70145;53.746;9.970;2023-07-13T02:58:13;100942.91;;;13.96;56.84
80749;BME280;70145;53.746;9.970;2023-07-13T03:00:43;100947.59;;;13.94;57.15
80749;BME280;70145;53.746;9.970;2023-07-13T03:03:09;100943.19;;;13.93;57.12
80749;BME280;70145;53.746;9.970;2023-07-13T03:05:37;100950.44;;;13.92;57.08
80749;BME280;70145;53.746;9.970;2023-07-13T03:08:02;100950.75;;;13.89;57.13
80749;BME280;70145;53.746;9.970;2023-07-13T03:10:28;100952.56;;;13.89;57.40
80749;BME280;70145;53.746;9.970;2023-07-13T03:12:54;100941.91;;;13.87;57.30
80749;BME280;70145;53.746;9.970;2023-07-13T03:15:19;100944.75;;;13.86;57.23
80749;BME280;70145;53.746;9.970;2023-07-13T03:17:44;100937.63;;;13.85;57.21
80749;BME280;70145;53.746;9.970;2023-07-13T03:20:10;100936.81;;;13.84;57.40
80749;BME280;70145;53.746;9.970;2023-07-13T03:22:35;100938.66;;;13.84;57.58
80749;BME280;70145;53.746;9.970;2023-07-13T03:25:01;100932.50;;;13.82;57.40
80749;BME280;70145;53.746;9.970;2023-07-13T03:27:26;100932.50;;;13.82;57.67
80749;BME280;70145;53.746;9.970;2023-07-13T03:29:51;100944.34;;;13.81;57.56
80749;BME280;70145;53.746;9.970;2023-07-13T03:32:16;100940.78;;;13.80;57.42
80749;BME280;70145;53.746;9.970;2023-07-13T03:34:42;100939.94;;;13.80;57.78
80749;BME280;70145;53.746;9.970;2023-07-13T03:37:07;100942.78;;;13.78;57.64
80749;BME280;70145;53.746;9.970;2023-07-13T03:39:32;100942.94;;;13.77;57.59
80749;BME280;70145;53.746;9.970;2023-07-13T03:41:58;100937.53;;;13.77;57.62
80749;BME280;70145;53.746;9.970;2023-07-13T03:44:23;100937.66;;;13.75;57.80
80749;BME280;70145;53.746;9.970;2023-07-13T03:46:49;100939.38;;;13.76;57.79
80749;BME280;70145;53.746;9.970;2023-07-13T03:49:14;100931.38;;;13.75;57.71
80749;BME280;70145;53.746;9.970;2023-07-13T03:51:39;100935.09;;;13.74;57.76
80749;BME280;70145;53.746;9.970;2023-07-13T03:54:05;100932.53;;;13.72;57.67
80749;BME280;70145;53.746;9.970;2023-07-13T03:56:30;100936.25;;;13.71;58.12
80749;BME280;70145;53.746;9.970;2023-07-13T03:58:57;100940.81;;;13.71;57.88
80749;BME280;70145;53.746;9.970;2023-07-13T04:01:24;100941.81;;;13.70;58.07
80749;BME280;70145;53.746;9.970;2023-07-13T04:03:52;100945.34;;;13.70;58.03
80749;BME280;70145;53.746;9.970;2023-07-13T04:06:25;100958.06;;;13.70;57.94
80749;BME280;70145;53.746;9.970;2023-07-13T04:08:53;100955.34;;;13.70;58.03
80749;BME280;70145;53.746;9.970;2023-07-13T04:11:20;100959.03;;;13.69;57.67
80749;BME280;70145;53.746;9.970;2023-07-13T04:13:47;100949.06;;;13.69;57.96
80749;BME280;70145;53.746;9.970;2023-07-13T04:16:14;100951.91;;;13.68;58.15
80749;BME280;70145;53.746;9.970;2023-07-13T04:18:40;100947.22;;;13.70;58.35
80749;BME280;70145;53.746;9.970;2023-07-13T04:21:06;100944.53;;;13.70;58.11
80749;BME280;70145;53.746;9.970;2023-07-13T04:23:32;100955.34;;;13.70;58.20
80749;BME280;70145;53.746;9.970;2023-07-13T04:25:57;100959.03;;;13.69;58.46
80749;BME280;70145;53.746;9.970;2023-07-13T04:28:24;100959.91;;;13.69;58.85
80749;BME280;70145;53.746;9.970;2023-07-13T04:30:50;100959.91;;;13.69;58.50
80749;BME280;70145;53.746;9.970;2023-07-13T04:33:15;100952.66;;;13.70;59.00
80749;BME280;70145;53.746;9.970;2023-07-13T04:35:42;100952.78;;;13.68;58.97
80749;BME280;70145;53.746;9.970;2023-07-13T04:38:07;100957.91;;;13.71;59.17
80749;BME280;70145;53.746;9.970;2023-07-13T04:40:36;100965.03;;;13.72;58.87
80749;BME280;70145;53.746;9.970;2023-07-13T04:43:01;100964.00;;;13.73;58.94
80749;BME280;70145;53.746;9.970;2023-07-13T04:45:27;100963.88;;;13.75;58.75
80749;BME280;70145;53.746;9.970;2023-07-13T04:47:52;100965.56;;;13.76;58.86
80749;BME280;70145;53.746;9.970;2023-07-13T04:50:17;100971.72;;;13.78;58.61
80749;BME280;70145;53.746;9.970;2023-07-13T04:52:48;100961.59;;;13.80;58.93
80749;BME280;70145;53.746;9.970;2023-07-13T04:55:14;100963.31;;;13.81;58.68
80749;BME280;70145;53.746;9.970;2023-07-13T04:57:39;100967.41;;;13.85;58.80
80749;BME280;70145;53.746;9.970;2023-07-13T05:00:05;100963.88;;;13.84;58.80
80749;BME280;70145;53.746;9.970;2023-07-13T05:02:32;100972.53;;;13.88;58.86
80749;BME280;70145;53.746;9.970;2023-07-13T05:04:58;100974.97;;;13.91;58.83
80749;BME280;70145;53.746;9.970;2023-07-13T05:07:25;100976.50;;;13.93;58.83
80749;BME280;70145;53.746;9.970;2023-07-13T05:09:50;100980.09;;;13.94;58.65
80749;BME280;70145;53.746;9.970;2023-07-13T05:12:15;100976.09;;;13.98;58.97
80749;BME280;70145;53.746;9.970;2023-07-13T05:14:41;100986.91;;;13.98;59.33
80749;BME280;70145;53.746;9.970;2023-07-13T05:17:06;100989.34;;;14.01;59.20
80749;BME280;70145;53.746;9.970;2023-07-13T05:19:32;100984.94;;;14.00;59.36
80749;BME280;70145;53.746;9.970;2023-07-13T05:21:57;100994.31;;;14.05;59.30
80749;BME280;70145;53.746;9.970;2023-07-13T05:24:23;100994.16;;;14.07;59.29
80749;BME280;70145;53.746;9.970;2023-07-13T05:26:49;100995.72;;;14.09;59.30
80749;BME280;70145;53.746;9.970;2023-07-13T05:29:14;100988.34;;;14.11;59.45
80749;BME280;70145;53.746;9.970;2023-07-13T05:31:39;100994.31;;;14.15;59.43
80749;BME280;70145;53.746;9.970;2023-07-13T05:34:05;100998.91;;;14.14;59.87
80749;BME280;70145;53.746;9.970;2023-07-13T05:36:30;101000.88;;;14.22;59.68
80749;BME280;70145;53.746;9.970;2023-07-13T05:38:55;100998.03;;;14.24;60.09
80749;BME280;70145;53.746;9.970;2023-07-13T05:41:21;101002.00;;;14.29;59.76
80749;BME280;70145;53.746;9.970;2023-07-13T05:43:46;100997.97;;;14.33;59.79
80749;BME280;70145;53.746;9.970;2023-07-13T05:46:11;100998.56;;;14.37;59.54
80749;BME280;70145;53.746;9.970;2023-07-13T05:48:37;101002.66;;;14.41;59.44
80749;BME280;70145;53.746;9.970;2023-07-13T05:51:02;101010.50;;;14.44;59.48
80749;BME280;70145;53.746;9.970;2023-07-13T05:53:27;101004.63;;;14.48;59.60
80749;BME280;70145;53.746;9.970;2023-07-13T05:55:54;101003.47;;;14.51;59.38
80749;BME280;70145;53.746;9.970;2023-07-13T05:58:19;101010.44;;;14.53;59.28
80749;BME280;70145;53.746;9.970;2023-07-13T06:00:46;101014.16;;;14.52;59.52
80749;BME280;70145;53.746;9.970;2023-07-13T06:03:11;101007.88;;;14.52;59.65
80749;BME280;70145;53.746;9.970;2023-07-13T06:05:38;101011.84;;;14.57;59.25
80749;BME280;70145;53.746;9.970;2023-07-13T06:08:04;101011.84;;;14.57;59.49
80749;BME280;70145;53.746;9.970;2023-07-13T06:10:32;101011.56;;;14.60;59.31
80749;BME280;70145;53.746;9.970;2023-07-13T06:12:57;101013.00;;;14.64;59.34
80749;BME280;70145;53.746;9.970;2023-07-13T06:15:23;101023.50;;;14.67;59.20
80749;BME280;70145;53.746;9.970;2023-07-13T06:17:48;101018.09;;;14.67;59.37
80749;BME280;70145;53.746;9.970;2023-07-13T06:20:13;101021.81;;;14.66;59.47
80749;BME280;70145;53.746;9.970;2023-07-13T06:22:39;101016.66;;;14.73;59.18
80749;BME280;70145;53.746;9.970;2023-07-13T06:25:04;101019.75;;;14.78;59.18
80749;BME280;70145;53.746;9.970;2023-07-13T06:27:30;101019.47;;;14.81;58.97
80749;BME280;70145;53.746;9.970;2023-07-13T06:29:55;101026.44;;;14.83;59.11
80749;BME280;70145;53.746;9.970;2023-07-13T06:32:20;101026.28;;;14.85;59.21
80749;BME280;70145;53.746;9.970;2023-07-13T06:34:46;101033.28;;;14.87;59.22
80749;BME280;70145;53.746;9.970;2023-07-13T06:37:11;101036.69;;;14.89;59.41
80749;BME280;70145;53.746;9.970;2023-07-13T06:39:37;101029.09;;;14.93;59.23
80749;BME280;70145;53.746;9.970;2023-07-13T06:42:02;101029.69;;;14.96;59.03
80749;BME280;70145;53.746;9.970;2023-07-13T06:44:28;101036.53;;;15.00;59.04
80749;BME280;70145;53.746;9.970;2023-07-13T06:46:53;101038.22;;;15.01;59.04
80749;BME280;70145;53.746;9.970;2023-07-13T06:49:18;101045.34;;;15.02;58.98
80749;BME280;70145;53.746;9.970;2023-07-13T06:51:44;101038.66;;;15.06;59.13
80749;BME280;70145;53.746;9.970;2023-07-13T06:54:09;101041.03;;;15.09;59.13
80749;BME280;70145;53.746;9.970;2023-07-13T06:56:34;101046.84;;;15.14;59.02
80749;BME280;70145;53.746;9.970;2023-07-13T06:59:00;101038.16;;;15.11;59.30
80749;BME280;70145;53.746;9.970;2023-07-13T07:01:25;101044.44;;;15.11;59.30
80749;BME280;70145;53.746;9.970;2023-07-13T07:03:50;101048.31;;;15.09;59.31
80749;BME280;70145;53.746;9.970;2023-07-13T07:06:21;101045.41;;;15.20;59.07
80749;BME280;70145;53.746;9.970;2023-07-13T07:08:48;101043.25;;;15.23;59.05
80749;BME280;70145;53.746;9.970;2023-07-13T07:11:20;101038.91;;;15.30;58.71
80749;BME280;70145;53.746;9.970;2023-07-13T07:13:48;101039.84;;;15.39;58.93
80749;BME280;70145;53.746;9.970;2023-07-13T07:16:13;101043.50;;;15.47;58.85
80749;BME280;70145;53.746;9.970;2023-07-13T07:18:38;101034.19;;;15.50;59.08
80749;BME280;70145;53.746;9.970;2023-07-13T07:21:04;101039.00;;;15.56;59.07
80749;BME280;70145;53.746;9.970;2023-07-13T07:23:29;101041.66;;;15.65;58.80
80749;BME280;70145;53.746;9.970;2023-07-13T07:25:54;101046.88;;;15.76;59.33
80749;BME280;70145;53.746;9.970;2023-07-13T07:28:20;101039.75;;;15.75;59.12
80749;BME280;70145;53.746;9.970;2023-07-13T07:30:47;101038.31;;;15.89;58.69
80749;BME280;70145;53.746;9.970;2023-07-13T07:33:13;101043.97;;;15.95;58.75
80749;BME280;70145;53.746;9.970;2023-07-13T07:35:38;101040.97;;;15.98;58.43
80749;BME280;70145;53.746;9.970;2023-07-13T07:38:04;101037.78;;;16.03;58.14
80749;BME280;70145;53.746;9.970;2023-07-13T07:40:29;101037.66;;;16.12;58.39
80749;BME280;70145;53.746;9.970;2023-07-13T07:42:54;101035.66;;;16.14;58.11
80749;BME280;70145;53.746;9.970;2023-07-13T07:45:20;101040.13;;;16.23;58.28
80749;BME280;70145;53.746;9.970;2023-07-13T07:47:45;101027.47;;;16.32;57.76
80749;BME280;70145;53.746;9.970;2023-07-13T07:50:11;101033.94;;;16.39;57.58
80749;BME280;70145;53.746;9.970;2023-07-13T07:52:36;101033.63;;;16.42;57.63
80749;BME280;70145;53.746;9.970;2023-07-13T07:55:03;101041.31;;;16.47;57.34
80749;BME280;70145;53.746;9.970;2023-07-13T07:57:28;101040.44;;;16.46;57.55
80749;BME280;70145;53.746;9.970;2023-07-13T07:59:53;101035.94;;;16.55;57.09
80749;BME280;70145;53.746;9.970;2023-07-13T08:02:19;101037.84;;;16.62;57.04
80749;BME280;70145;53.746;9.970;2023-07-13T08:04:44;101034.19;;;16.71;57.39
80749;BME280;70145;53.746;9.970;2023-07-13T08:07:10;101025.53;;;16.76;56.70
80749;BME280;70145;53.746;9.970;2023-07-13T08:09:35;101023.84;;;16.83;56.89
80749;BME280;70145;53.746;9.970;2023-07-13T08:12:00;101019.47;;;16.90;56.53
80749;BME280;70145;53.746;9.970;2023-07-13T08:14:26;101021.22;;;16.99;56.74
80749;BME280;70145;53.746;9.970;2023-07-13T08:16:51;101016.81;;;17.06;56.45
80749;BME280;70145;53.746;9.970;2023-07-13T08:19:17;101020.41;;;17.14;56.20
80749;BME280;70145;53.746;9.970;2023-07-13T08:21:43;101018.88;;;17.20;56.11
80749;BME280;70145;53.746;9.970;2023-07-13T08:24:09;101022.84;;;17.25;56.16
80749;BME280;70145;53.746;9.970;2023-07-13T08:26:34;101031.53;;;17.37;56.19
80749;BME280;70145;53.746;9.970;2023-07-13T08:29:00;101037.34;;;17.42;56.05
80749;BME280;70145;53.746;9.970;2023-07-13T08:31:25;101044.53;;;17.51;55.89
80749;BME280;70145;53.746;9.970;2023-07-13T08:33:50;101041.81;;;17.59;55.52
80749;BME280;70145;53.746;9.970;2023-07-13T08:36:16;101036.72;;;17.64;55.34
80749;BME280;70145;53.746;9.970;2023-07-13T08:38:41;101038.44;;;17.73;55.39
80749;BME280;70145;53.746;9.970;2023-07-13T08:41:15;101039.13;;;17.83;55.40
80749;BME280;70145;53.746;9.970;2023-07-13T08:43:43;101035.03;;;17.87;54.95
80749;BME280;70145;53.746;9.970;2023-07-13T08:46:33;101035.53;;;17.90;54.09
80749;BME280;70145;53.746;9.970;2023-07-13T08:49:03;101035.22;;;18.01;53.83
80749;BME280;70145;53.746;9.970;2023-07-13T08:51:45;101035.38;;;18.08;53.54
80749;BME280;70145;53.746;9.970;2023-07-13T08:54:30;101029.09;;;18.15;53.38
80749;BME280;70145;53.746;9.970;2023-07-13T08:56:57;101024.97;;;18.19;53.64
80749;BME280;70145;53.746;9.970;2023-07-13T08:59:31;101028.91;;;18.17;53.13
80749;BME280;70145;53.746;9.970;2023-07-13T09:04:56;101033.84;;;18.29;52.86
80749;BME280;70145;53.746;9.970;2023-07-13T09:10:32;101038.75;;;18.34;52.32
80749;BME280;70145;53.746;9.970;2023-07-13T09:15:59;101040.97;;;18.38;51.79
80749;BME280;70145;53.746;9.970;2023-07-13T09:18:52;101043.53;;;18.40;52.25
80749;BME280;70145;53.746;9.970;2023-07-13T09:21:22;101040.13;;;18.46;51.82
80749;BME280;70145;53.746;9.970;2023-07-13T09:23:52;101036.00;;;18.50;51.78
80749;BME280;70145;53.746;9.970;2023-07-13T09:26:22;101032.59;;;18.56;51.73
80749;BME280;70145;53.746;9.970;2023-07-13T09:28:51;101039.38;;;18.60;51.75
80749;BME280;70145;53.746;9.970;2023-07-13T09:31:32;101044.19;;;18.66;51.90
80749;BME280;70145;53.746;9.970;2023-07-13T09:33:59;101044.19;;;18.74;51.89
80749;BME280;70145;53.746;9.970;2023-07-13T09:36:28;101041.75;;;18.79;51.80
80749;BME280;70145;53.746;9.970;2023-07-13T09:39:04;101035.94;;;18.90;51.66
80749;BME280;70145;53.746;9.970;2023-07-13T09:44:36;101039.97;;;19.02;51.22
80749;BME280;70145;53.746;9.970;2023-07-13T09:47:02;101047.41;;;19.16;51.39
80749;BME280;70145;53.746;9.970;2023-07-13T09:49:35;101042.94;;;19.23;50.89
80749;BME280;70145;53.746;9.970;2023-07-13T09:52:06;101046.66;;;19.30;50.29
80749;BME280;70145;53.746;9.970;2023-07-13T09:54:36;101056.72;;;19.38;50.17
80749;BME280;70145;53.746;9.970;2023-07-13T09:57:03;101057.19;;;19.41;50.12
80749;BME280;70145;53.746;9.970;2023-07-13T09:59:35;101045.91;;;19.44;49.81
80749;BME280;70145;53.746;9.970;2023-07-13T10:02:32;101051.38;;;19.44;49.26
80749;BME280;70145;53.746;9.970;2023-07-13T10:05:13;101041.75;;;19.56;49.01
80749;BME280;70145;53.746;9.970;2023-07-13T10:07:43;101038.97;;;19.64;48.75
80749;BME280;70145;53.746;9.970;2023-07-13T10:10:19;101037.22;;;19.71;48.20
80749;BME280;70145;53.746;9.970;2023-07-13T10:12:46;101039.50;;;19.82;48.00
80749;BME280;70145;53.746;9.970;2023-07-13T10:15:37;101046.31;;;19.86;47.42
80749;BME280;70145;53.746;9.970;2023-07-13T10:18:03;101041.78;;;20.01;47.76
80749;BME280;70145;53.746;9.970;2023-07-13T10:20:29;101043.78;;;20.07;47.60
80749;BME280;70145;53.746;9.970;2023-07-13T10:25:27;101023.81;;;20.21;47.21
80749;BME280;70145;53.746;9.970;2023-07-13T10:27:58;101039.38;;;20.21;45.91
80749;BME280;70145;53.746;9.970;2023-07-13T10:30:35;101027.22;;;20.23;44.82
80749;BME280;70145;53.746;9.970;2023-07-13T10:33:10;101038.06;;;20.31;45.28
80749;BME280;70145;53.746;9.970;2023-07-13T10:35:37;101038.06;;;20.31;45.66
80749;BME280;70145;53.746;9.970;2023-07-13T10:38:07;101043.91;;;20.28;44.54
80749;BME280;70145;53.746;9.970;2023-07-13T10:40:57;101044.59;;;20.30;44.76
80749;BME280;70145;53.746;9.970;2023-07-13T10:43:35;101053.44;;;20.18;43.92
80749;BME280;70145;53.746;9.970;2023-07-13T10:46:06;101064.47;;;20.24;44.67
80749;BME280;70145;53.746;9.970;2023-07-13T10:48:34;101063.06;;;20.28;44.72
80749;BME280;70145;53.746;9.970;2023-07-13T10:51:04;101066.47;;;20.30;44.59
80749;BME280;70145;53.746;9.970;2023-07-13T10:53:33;101075.72;;;20.29;44.49
80749;BME280;70145;53.746;9.970;2023-07-13T10:56:01;101075.50;;;20.16;44.82
80749;BME280;70145;53.746;9.970;2023-07-13T11:01:13;101072.22;;;19.98;44.97
80749;BME280;70145;53.746;9.970;2023-07-13T11:06:18;101073.63;;;19.86;45.06
80749;BME280;70145;53.746;9.970;2023-07-13T11:08:59;101081.19;;;19.84;45.18
80749;BME280;70145;53.746;9.970;2023-07-13T11:11:37;101086.66;;;19.84;45.19
80749;BME280;70145;53.746;9.970;2023-07-13T11:14:14;101086.47;;;19.86;44.41
80749;BME280;70145;53.746;9.970;2023-07-13T11:16:49;101081.84;;;19.86;44.63
80749;BME280;70145;53.746;9.970;2023-07-13T11:24:58;101095.25;;;19.73;43.40
80749;BME280;70145;53.746;9.970;2023-07-13T11:27:42;101099.38;;;19.69;44.65
80749;BME280;70145;53.746;9.970;2023-07-13T11:33:04;101099.56;;;19.68;45.76
80749;BME280;70145;53.746;9.970;2023-07-13T11:35:32;101109.16;;;19.64;45.73
80749;BME280;70145;53.746;9.970;2023-07-13T11:37:59;101106.91;;;19.67;46.16
80749;BME280;70145;53.746;9.970;2023-07-13T11:40:26;101101.06;;;19.70;46.36
80749;BME280;70145;53.746;9.970;2023-07-13T11:42:59;101109.97;;;19.72;47.02
80749;BME280;70145;53.746;9.970;2023-07-13T11:45:24;101099.34;;;19.77;47.33
80749;BME280;70145;53.746;9.970;2023-07-13T11:47:49;101105.81;;;19.76;47.33
80749;BME280;70145;53.746;9.970;2023-07-13T11:50:20;101108.88;;;19.81;47.46
80749;BME280;70145;53.746;9.970;2023-07-13T11:52:46;101112.28;;;19.83;47.68
80749;BME280;70145;53.746;9.970;2023-07-13T11:55:17;101126.78;;;19.84;47.75
80749;BME280;70145;53.746;9.970;2023-07-13T11:58:01;101130.47;;;19.68;48.23
80749;BME280;70145;53.746;9.970;2023-07-13T12:00:31;101135.59;;;19.71;48.46
80749;BME280;70145;53.746;9.970;2023-07-13T12:03:03;101141.41;;;19.68;48.70
80749;BME280;70145;53.746;9.970;2023-07-13T12:05:30;101138.88;;;19.67;48.86
80749;BME280;70145;53.746;9.970;2023-07-13T12:07:56;101158.38;;;19.56;49.04
80749;BME280;70145;53.746;9.970;2023-07-13T12:10:29;101176.66;;;19.55;48.94
80749;BME280;70145;53.746;9.970;2023-07-13T12:13:01;101170.34;;;19.55;48.76
80749;BME280;70145;53.746;9.970;2023-07-13T12:15:42;101193.94;;;19.48;48.78
80749;BME280;70145;53.746;9.970;2023-07-13T12:18:15;101179.75;;;19.44;48.44
80749;BME280;70145;53.746;9.970;2023-07-13T12:20:44;101191.03;;;19.41;48.41
80749;BME280;70145;53.746;9.970;2023-07-13T12:23:32;101196.19;;;19.36;48.11
80749;BME280;70145;53.746;9.970;2023-07-13T12:26:02;101198.25;;;19.34;48.00
80749;BME280;70145;53.746;9.970;2023-07-13T12:28:34;101194.13;;;19.30;48.18
80749;BME280;70145;53.746;9.970;2023-07-13T12:31:24;101189.38;;;19.24;48.01
80749;BME280;70145;53.746;9.970;2023-07-13T12:33:57;101183.25;;;19.22;47.81
80749;BME280;70145;53.746;9.970;2023-07-13T12:36:23;101182.72;;;19.19;48.35
80749;BME280;70145;53.746;9.970;2023-07-13T12:38:49;101187.69;;;19.15;48.00
80749;BME280;70145;53.746;9.970;2023-07-13T12:41:15;101191.78;;;19.11;48.53
80749;BME280;70145;53.746;9.970;2023-07-13T12:43:40;101198.63;;;19.07;48.49
80749;BME280;70145;53.746;9.970;2023-07-13T12:46:21;101196.59;;;19.01;48.74
80749;BME280;70145;53.746;9.970;2023-07-13T12:48:53;101202.41;;;18.98;48.69
80749;BME280;70145;53.746;9.970;2023-07-13T12:51:21;101194.91;;;18.92;49.08
80749;BME280;70145;53.746;9.970;2023-07-13T12:53:50;101204.28;;;18.90;49.18
80749;BME280;70145;53.746;9.970;2023-07-13T12:56:23;101202.75;;;18.87;49.43
80749;BME280;70145;53.746;9.970;2023-07-13T12:58:51;101192.84;;;18.86;49.74
80749;BME280;70145;53.746;9.970;2023-07-13T13:01:21;101199.16;;;18.87;49.78
80749;BME280;70145;53.746;9.970;2023-07-13T13:03:50;101191.16;;;18.85;49.92
80749;BME280;70145;53.746;9.970;2023-07-13T13:08:56;101191.16;;;18.85;50.38
80749;BME280;70145;53.746;9.970;2023-07-13T13:11:31;101203.97;;;18.85;50.62
80749;BME280;70145;53.746;9.970;2023-07-13T13:13:57;101209.59;;;18.83;50.86
80749;BME280;70145;53.746;9.970;2023-07-13T13:18:59;101217.44;;;18.78;51.75
80749;BME280;70145;53.746;9.970;2023-07-13T13:21:25;101223.75;;;18.79;51.07
80749;BME280;70145;53.746;9.970;2023-07-13T13:23:51;101223.59;;;18.80;51.19
80749;BME280;70145;53.746;9.970;2023-07-13T13:26:18;101222.91;;;18.78;51.37
80749;BME280;70145;53.746;9.970;2023-07-13T13:28:44;101222.19;;;18.76;51.39
80749;BME280;70145;53.746;9.970;2023-07-13T13:31:11;101211.97;;;18.78;51.37